createdAt,value
2023-04-18T00:01:49.049Z,12.85
2023-04-18T00:03:51.374Z,12.25
2023-04-18T00:05:53.828Z,13.15
2023-04-18T00:07:56.406Z,12.82
2023-04-18T00:09:58.218Z,13.52
2023-04-18T00:12:00.035Z,13.40
2023-04-18T00:14:03.407Z,12.43
2023-04-18T00:16:06.039Z,12.75
2023-04-18T00:18:19.875Z,12.50
2023-04-18T00:20:21.751Z,13.63
2023-04-18T00:22:24.127Z,12.95
2023-04-18T00:24:26.050Z,12.98
2023-04-18T00:26:28.270Z,13.30
2023-04-18T00:28:30.216Z,13.05
2023-04-18T00:30:32.135Z,12.35
2023-04-18T00:32:34.035Z,12.27
2023-04-18T00:34:35.848Z,13.27
2023-04-18T00:36:37.668Z,12.70
2023-04-18T00:38:39.577Z,12.17
2023-04-18T00:40:41.453Z,13.07
2023-04-18T00:42:43.245Z,12.57
2023-04-18T00:44:45.030Z,13.37
2023-04-18T00:46:46.830Z,12.40
2023-04-18T00:48:48.734Z,12.60
2023-04-18T00:50:50.562Z,13.18
2023-04-18T00:52:52.551Z,13.33
2023-04-18T00:54:54.966Z,12.90
2023-04-18T00:56:56.887Z,13.20
2023-04-18T00:58:59.349Z,13.35
2023-04-18T01:01:01.194Z,12.70
2023-04-18T01:03:03.597Z,13.77
2023-04-18T01:05:06.659Z,13.23
2023-04-18T01:07:08.627Z,12.45
2023-04-18T01:09:10.947Z,13.55
2023-04-18T01:11:12.752Z,13.57
2023-04-18T01:13:19.058Z,13.00
2023-04-18T01:15:20.920Z,13.05
2023-04-18T01:17:23.468Z,12.73
2023-04-18T01:19:25.834Z,12.90
2023-04-18T01:22:08.484Z,11.82
2023-04-18T01:24:12.369Z,12.45
2023-04-18T01:26:14.554Z,11.90
2023-04-18T01:28:16.472Z,12.63
2023-04-18T01:30:18.382Z,13.15
2023-04-18T01:32:20.710Z,12.63
2023-04-18T01:34:22.776Z,12.48
2023-04-18T01:36:24.673Z,12.20
2023-04-18T01:38:26.536Z,13.23
2023-04-18T01:40:28.388Z,11.73
2023-04-18T01:42:30.244Z,12.77
2023-04-18T01:44:32.068Z,12.68
2023-04-18T01:46:34.314Z,12.40
2023-04-18T01:48:36.212Z,12.00
2023-04-18T01:50:38.048Z,12.13
2023-04-18T01:52:39.892Z,12.57
2023-04-18T01:54:41.743Z,12.07
2023-04-18T01:56:43.578Z,11.35
2023-04-18T01:58:45.607Z,12.00
2023-04-18T02:00:47.486Z,12.27
2023-04-18T02:02:50.611Z,12.32
2023-04-18T02:04:52.601Z,11.50
2023-04-18T02:06:54.471Z,11.50
2023-04-18T02:08:56.257Z,12.13
2023-04-18T02:10:58.114Z,11.00
2023-04-18T02:12:59.969Z,11.30
2023-04-18T02:15:01.834Z,11.90
2023-04-18T02:17:03.695Z,12.20
2023-04-18T02:19:06.410Z,10.60
2023-04-18T02:23:11.524Z,12.13
2023-04-18T02:25:13.456Z,12.27
2023-04-18T02:27:15.321Z,11.68
2023-04-18T02:29:17.176Z,12.53
2023-04-18T02:31:19.012Z,11.97
2023-04-18T02:33:20.955Z,12.20
2023-04-18T02:35:23.067Z,11.60
2023-04-18T02:37:24.920Z,12.18
2023-04-18T02:39:26.788Z,11.18
2023-04-18T02:41:28.809Z,12.55
2023-04-18T02:43:30.726Z,12.63
2023-04-18T02:45:32.845Z,13.10
2023-04-18T02:47:43.785Z,12.00
2023-04-18T02:49:56.261Z,11.40
2023-04-18T02:51:58.157Z,12.48
2023-04-18T02:53:59.972Z,11.97
2023-04-18T02:56:02.345Z,12.60
2023-04-18T02:58:04.183Z,12.32
2023-04-18T03:00:07.916Z,12.85
2023-04-18T03:02:09.877Z,12.38
2023-04-18T03:04:12.837Z,12.70
2023-04-18T03:06:14.881Z,12.90
2023-04-18T03:08:16.756Z,12.93
2023-04-18T03:10:18.657Z,14.35
2023-04-18T03:12:20.492Z,16.05
2023-04-18T03:14:22.341Z,15.07
2023-04-18T03:16:24.234Z,13.23
2023-04-18T03:18:26.167Z,12.98
2023-04-18T03:20:27.982Z,12.73
2023-04-18T03:22:29.868Z,11.80
2023-04-18T03:24:31.695Z,12.00
2023-04-18T03:26:33.904Z,13.48
2023-04-18T03:28:35.783Z,12.68
2023-04-18T03:30:37.594Z,13.20
2023-04-18T03:32:39.572Z,12.10
2023-04-18T03:34:41.396Z,12.55
2023-04-18T03:36:43.566Z,12.70
2023-04-18T03:38:45.904Z,13.45
2023-04-18T03:40:47.918Z,13.20
2023-04-18T03:42:49.718Z,12.35
2023-04-18T03:44:51.608Z,12.50
2023-04-18T03:46:54.197Z,13.05
2023-04-18T03:48:56.027Z,12.57
2023-04-18T03:50:57.861Z,12.53
2023-04-18T03:52:59.684Z,12.13
2023-04-18T03:55:01.689Z,12.48
2023-04-18T03:57:03.596Z,11.20
2023-04-18T03:59:05.629Z,12.53
2023-04-18T04:01:07.797Z,12.05
2023-04-18T04:03:09.726Z,11.63
2023-04-18T04:05:11.813Z,11.95
2023-04-18T04:07:13.889Z,11.50
2023-04-18T04:09:15.891Z,11.65
2023-04-18T04:11:17.788Z,12.48
2023-04-18T04:13:19.576Z,12.68
2023-04-18T04:15:21.366Z,12.10
2023-04-18T04:17:23.212Z,12.00
2023-04-18T04:19:25.362Z,12.97
2023-04-18T04:21:27.278Z,13.20
2023-04-18T04:23:29.106Z,12.23
2023-04-18T04:25:30.963Z,12.67
2023-04-18T04:27:34.118Z,12.93
2023-04-18T04:29:36.254Z,13.13
2023-04-18T04:31:38.070Z,13.35
2023-04-18T04:33:41.098Z,13.23
2023-04-18T04:35:43.518Z,13.88
2023-04-18T04:37:45.584Z,13.10
2023-04-18T04:39:47.504Z,15.00
2023-04-18T04:41:49.804Z,12.32
2023-04-18T04:43:52.375Z,13.70
2023-04-18T04:45:54.248Z,13.73
2023-04-18T04:47:56.078Z,13.65
2023-04-18T04:49:57.880Z,13.70
2023-04-18T04:52:01.417Z,13.57
2023-04-18T04:54:04.305Z,14.13
2023-04-18T04:56:07.223Z,13.38
2023-04-18T04:58:09.028Z,13.25
2023-04-18T05:00:11.449Z,13.07
2023-04-18T05:02:13.373Z,14.55
2023-04-18T05:04:15.722Z,12.95
2023-04-18T05:06:20.729Z,13.52
2023-04-18T05:08:22.663Z,13.23
2023-04-18T05:10:24.474Z,13.45
2023-04-18T05:12:26.883Z,13.00
2023-04-18T05:14:28.746Z,13.60
2023-04-18T05:16:30.737Z,13.53
2023-04-18T05:18:34.912Z,13.88
2023-04-18T05:20:36.953Z,13.45
2023-04-18T05:22:38.778Z,12.70
2023-04-18T05:24:41.300Z,13.40
2023-04-18T05:26:43.243Z,13.38
2023-04-18T05:28:45.127Z,13.75
2023-04-18T05:30:47.004Z,13.50
2023-04-18T05:32:48.986Z,14.27
2023-04-18T05:34:51.287Z,14.18
2023-04-18T05:36:53.113Z,13.07
2023-04-18T05:38:55.029Z,13.13
2023-04-18T05:41:00.245Z,12.68
2023-04-18T05:43:02.143Z,13.85
2023-04-18T05:45:04.216Z,12.85
2023-04-18T05:47:06.283Z,13.32
2023-04-18T05:49:08.261Z,12.73
2023-04-18T05:51:11.635Z,13.32
2023-04-18T05:53:13.659Z,13.32
2023-04-18T05:55:15.646Z,12.70
2023-04-18T05:57:17.492Z,13.68
2023-04-18T05:59:20.652Z,13.27
2023-04-18T06:01:23.005Z,13.27
2023-04-18T06:03:25.043Z,12.98
2023-04-18T06:05:27.266Z,13.45
2023-04-18T06:07:29.701Z,12.68
2023-04-18T06:09:31.563Z,12.82
2023-04-18T06:11:36.075Z,13.40
2023-04-18T06:13:37.953Z,13.90
2023-04-18T06:15:39.820Z,12.82
2023-04-18T06:17:41.733Z,13.77
2023-04-18T06:19:43.642Z,12.98
2023-04-18T06:21:45.804Z,13.05
2023-04-18T06:23:47.739Z,13.23
2023-04-18T06:25:49.583Z,13.25
2023-04-18T06:27:51.403Z,14.17
2023-04-18T06:29:53.411Z,14.20
2023-04-18T06:31:55.344Z,12.88
2023-04-18T06:33:57.284Z,13.32
2023-04-18T06:35:59.268Z,12.67
2023-04-18T06:38:01.102Z,12.57
2023-04-18T06:40:03.037Z,12.77
2023-04-18T06:42:05.054Z,13.93
2023-04-18T06:44:06.879Z,12.73
2023-04-18T06:46:08.808Z,13.43
2023-04-18T06:48:10.865Z,12.38
2023-04-18T06:50:12.760Z,12.85
2023-04-18T06:52:14.599Z,13.05
2023-04-18T06:54:16.456Z,13.47
2023-04-18T06:56:19.514Z,13.50
2023-04-18T06:58:21.445Z,11.93
2023-04-18T07:00:23.346Z,12.48
2023-04-18T07:02:25.385Z,13.10
2023-04-18T07:04:27.322Z,12.88
2023-04-18T07:06:29.181Z,12.98
2023-04-18T07:08:31.044Z,12.20
2023-04-18T07:10:32.898Z,12.98
2023-04-18T07:12:34.835Z,13.60
2023-04-18T07:14:36.687Z,12.80
2023-04-18T07:16:38.621Z,13.00
2023-04-18T07:18:40.582Z,12.35
2023-04-18T07:20:42.474Z,13.07
2023-04-18T07:22:44.382Z,12.85
2023-04-18T07:24:46.264Z,12.35
2023-04-18T07:26:48.106Z,12.05
2023-04-18T07:28:49.984Z,13.13
2023-04-18T07:30:51.878Z,12.80
2023-04-18T07:32:54.062Z,13.30
2023-04-18T07:34:57.376Z,12.23
2023-04-18T07:36:59.374Z,13.43
2023-04-18T07:39:01.891Z,12.55
2023-04-18T07:41:04.065Z,12.82
2023-04-18T07:43:05.957Z,12.50
2023-04-18T07:45:08.016Z,11.13
2023-04-18T07:47:12.441Z,12.00
2023-04-18T07:49:14.545Z,12.65
2023-04-18T07:51:17.028Z,11.82
2023-04-18T07:53:22.063Z,12.50
2023-04-18T07:55:24.211Z,12.50
2023-04-18T07:57:26.115Z,12.73
2023-04-18T07:59:28.979Z,13.13
2023-04-18T08:01:31.164Z,11.65
2023-04-18T08:03:35.086Z,12.60
2023-04-18T08:05:37.217Z,13.18
2023-04-18T08:07:39.245Z,13.25
2023-04-18T08:09:41.104Z,13.63
2023-04-18T08:11:42.943Z,12.50
2023-04-18T08:13:44.798Z,12.73
2023-04-18T08:15:47.809Z,13.57
2023-04-18T08:17:49.706Z,13.18
2023-04-18T08:19:51.594Z,12.50
2023-04-18T08:21:53.737Z,12.95
2023-04-18T08:23:58.734Z,12.40
2023-04-18T08:26:00.564Z,12.77
2023-04-18T08:28:02.394Z,12.73
2023-04-18T08:30:04.948Z,12.40
2023-04-18T08:32:07.910Z,12.75
2023-04-18T08:34:09.832Z,11.88
2023-04-18T08:36:12.855Z,12.27
2023-04-18T08:38:14.995Z,11.60
2023-04-18T08:40:16.976Z,12.40
2023-04-18T08:42:19.372Z,11.88
2023-04-18T08:44:21.598Z,13.30
2023-04-18T08:46:23.499Z,11.90
2023-04-18T08:48:26.500Z,11.88
2023-04-18T08:50:28.342Z,11.85
2023-04-18T08:52:31.228Z,11.77
2023-04-18T08:54:33.543Z,12.27
2023-04-18T08:56:37.632Z,11.43
2023-04-18T08:58:39.487Z,11.85
2023-04-18T09:00:41.750Z,11.97
2023-04-18T09:02:43.905Z,12.30
2023-04-18T09:04:49.087Z,11.02
2023-04-18T09:06:53.992Z,11.52
2023-04-18T09:08:57.640Z,11.55
2023-04-18T09:11:28.908Z,11.23
2023-04-18T09:13:40.174Z,11.23
2023-04-18T09:15:42.017Z,11.80
2023-04-18T09:17:51.356Z,12.47
2023-04-18T09:19:54.635Z,12.07
2023-04-18T09:22:00.169Z,12.15
2023-04-18T09:24:28.456Z,11.43
2023-04-18T09:26:34.339Z,10.65
2023-04-18T09:28:37.566Z,11.60
2023-04-18T09:30:40.637Z,11.65
2023-04-18T09:32:42.595Z,10.75
2023-04-18T09:34:44.481Z,10.85
2023-04-18T09:36:46.328Z,10.70
2023-04-18T09:38:48.852Z,10.27
2023-04-18T09:41:08.030Z,10.70
2023-04-18T09:43:20.055Z,10.18
2023-04-18T09:45:22.807Z,11.40
2023-04-18T09:49:26.734Z,9.95
2023-04-18T09:51:28.567Z,9.98
2023-04-18T09:53:30.978Z,9.93
2023-04-18T09:55:33.440Z,11.27
2023-04-18T09:57:36.366Z,10.70
2023-04-18T09:59:49.756Z,10.75
2023-04-18T10:01:51.937Z,11.20
2023-04-18T10:03:53.951Z,11.80
2023-04-18T10:05:57.661Z,10.85
2023-04-18T10:07:59.866Z,10.15
2023-04-18T10:10:01.724Z,10.75
2023-04-18T10:12:03.715Z,10.77
2023-04-18T10:14:08.026Z,9.93
2023-04-18T10:16:11.123Z,10.82
2023-04-18T10:18:18.922Z,9.90
2023-04-18T10:20:26.697Z,10.90
2023-04-18T10:22:28.591Z,10.15
2023-04-18T10:24:49.813Z,9.50
2023-04-18T10:26:51.855Z,10.02
2023-04-18T10:28:57.435Z,10.60
2023-04-18T10:31:05.707Z,10.13
2023-04-18T10:33:41.990Z,9.70
2023-04-18T10:36:05.496Z,9.93
2023-04-18T10:38:07.324Z,10.95
2023-04-18T10:40:10.393Z,10.33
2023-04-18T10:42:12.269Z,11.30
2023-04-18T10:44:14.988Z,11.18
2023-04-18T10:46:30.290Z,10.30
2023-04-18T10:51:19.227Z,10.32
2023-04-18T10:53:21.186Z,9.60
2023-04-18T10:55:26.960Z,9.82
2023-04-18T10:57:39.134Z,9.63
2023-04-18T10:59:46.789Z,9.18
2023-04-18T11:01:48.631Z,9.88
2023-04-18T11:03:50.544Z,9.90
2023-04-18T11:05:52.472Z,10.00
2023-04-18T11:07:54.951Z,9.60
2023-04-18T11:09:56.889Z,10.95
2023-04-18T11:12:10.930Z,10.05
2023-04-18T11:14:13.126Z,9.98
2023-04-18T11:16:27.154Z,10.00
2023-04-18T11:18:41.055Z,9.13
2023-04-18T11:20:50.118Z,10.55
2023-04-18T11:22:59.062Z,9.65
2023-04-18T11:25:01.839Z,9.48
2023-04-18T11:27:04.328Z,9.38
2023-04-18T11:29:06.427Z,11.02
2023-04-18T11:31:08.618Z,10.85
2023-04-18T11:33:13.783Z,10.10
2023-04-18T11:35:16.158Z,9.90
2023-04-18T11:37:18.018Z,10.30
2023-04-18T11:39:20.609Z,10.13
2023-04-18T11:41:22.445Z,10.55
2023-04-18T11:43:25.008Z,10.37
2023-04-18T11:45:27.517Z,7.95
2023-04-18T11:47:34.137Z,8.10
2023-04-18T11:49:36.007Z,8.20
2023-04-18T11:51:44.743Z,9.10
2023-04-18T11:53:46.751Z,8.25
2023-04-18T11:55:55.851Z,8.82
2023-04-18T11:57:58.725Z,9.57
2023-04-18T12:00:01.678Z,8.27
2023-04-18T12:02:15.464Z,9.88
2023-04-18T12:04:19.158Z,9.75
2023-04-18T12:06:21.305Z,9.38
2023-04-18T12:08:23.185Z,10.23
2023-04-18T12:10:27.707Z,9.50
2023-04-18T12:12:30.837Z,9.27
2023-04-18T12:14:32.670Z,10.48
2023-04-18T12:16:34.518Z,10.27
2023-04-18T12:18:36.422Z,10.40
2023-04-18T12:20:52.392Z,9.63
2023-04-18T12:22:55.139Z,10.35
2023-04-18T12:29:48.634Z,9.90
2023-04-18T12:31:50.734Z,9.47
2023-04-18T12:33:52.859Z,10.32
2023-04-18T12:35:54.726Z,10.10
2023-04-18T12:37:57.512Z,10.50
2023-04-18T12:39:59.407Z,10.07
2023-04-18T12:42:02.343Z,9.13
2023-04-18T12:44:04.533Z,9.27
2023-04-18T12:46:06.319Z,8.60
2023-04-18T12:48:08.294Z,9.00
2023-04-18T12:50:11.650Z,9.82
2023-04-18T12:52:13.549Z,9.38
2023-04-18T12:54:15.570Z,9.73
2023-04-18T12:56:17.592Z,10.20
2023-04-18T12:58:20.652Z,10.07
2023-04-18T13:00:23.665Z,9.65
2023-04-18T13:02:26.652Z,10.23
2023-04-18T13:04:28.842Z,9.48
2023-04-18T13:06:30.848Z,9.02
2023-04-18T13:08:32.764Z,9.80
2023-04-18T13:10:34.666Z,9.80
2023-04-18T13:12:37.362Z,9.57
2023-04-18T13:16:43.583Z,9.25
2023-04-18T13:18:45.701Z,9.27
2023-04-18T13:20:47.669Z,8.57
2023-04-18T13:22:49.554Z,9.13
2023-04-18T13:24:51.430Z,8.97
2023-04-18T13:26:53.291Z,9.67
2023-04-18T13:28:55.238Z,9.07
2023-04-18T13:30:57.021Z,8.23
2023-04-18T13:32:58.837Z,8.47
2023-04-18T13:35:00.819Z,8.13
2023-04-18T13:37:02.686Z,9.18
2023-04-18T13:39:05.249Z,8.10
2023-04-18T13:41:12.763Z,8.43
2023-04-18T13:43:15.557Z,8.10
2023-04-18T13:45:17.476Z,8.43
2023-04-18T13:47:19.376Z,8.57
2023-04-18T13:49:21.540Z,7.18
2023-04-18T13:51:23.410Z,7.47
2023-04-18T13:53:25.388Z,7.13
2023-04-18T13:55:27.265Z,6.45
2023-04-18T13:57:32.177Z,7.90
2023-04-18T13:59:34.166Z,6.88
2023-04-18T14:01:36.057Z,7.57
2023-04-18T14:03:39.439Z,7.80
2023-04-18T14:05:42.478Z,8.05
2023-04-18T14:07:44.437Z,8.93
2023-04-18T14:09:48.193Z,7.43
2023-04-18T14:11:51.372Z,7.05
2023-04-18T14:13:53.278Z,7.05
2023-04-18T14:15:55.436Z,7.35
2023-04-18T14:17:57.485Z,7.13
2023-04-18T14:19:59.352Z,7.60
2023-04-18T14:22:01.148Z,7.18
2023-04-18T14:24:03.815Z,7.57
2023-04-18T14:28:09.806Z,7.25
2023-04-18T14:30:13.052Z,7.88
2023-04-18T14:32:14.918Z,8.15
2023-04-18T14:34:16.731Z,7.55
2023-04-18T14:36:18.563Z,7.15
2023-04-18T14:38:20.754Z,7.95
2023-04-18T14:40:23.130Z,7.32
2023-04-18T14:42:25.152Z,7.93
2023-04-18T14:44:27.399Z,8.43
2023-04-18T14:46:30.741Z,7.03
2023-04-18T14:48:35.589Z,8.25
2023-04-18T14:50:38.797Z,8.50
2023-04-18T14:52:41.004Z,8.23
2023-04-18T14:54:44.097Z,7.57
2023-04-18T14:56:45.951Z,8.80
2023-04-18T14:58:47.956Z,8.20
2023-04-18T15:00:50.579Z,8.23
2023-04-18T15:04:54.669Z,8.35
2023-04-18T15:06:56.972Z,7.97
2023-04-18T15:08:58.793Z,8.23
2023-04-18T15:11:01.267Z,8.80
2023-04-18T15:15:06.260Z,8.55
2023-04-18T15:17:08.115Z,8.07
2023-04-18T15:19:09.945Z,8.30
2023-04-18T15:21:12.223Z,8.60
2023-04-18T15:23:14.788Z,7.97
2023-04-18T15:27:19.067Z,8.70
2023-04-18T15:29:21.170Z,8.90
2023-04-18T15:31:23.638Z,8.95
2023-04-18T15:33:26.036Z,8.30
2023-04-18T15:35:27.935Z,8.73
2023-04-18T15:37:29.860Z,8.18
2023-04-18T15:39:31.780Z,8.35
2023-04-18T15:41:38.080Z,8.45
2023-04-18T15:43:41.903Z,8.02
2023-04-18T15:45:44.628Z,8.52
2023-04-18T15:47:46.847Z,8.23
2023-04-18T15:49:48.727Z,8.32
2023-04-18T15:51:50.574Z,7.97
2023-04-18T15:53:52.422Z,8.00
2023-04-18T15:55:54.371Z,8.37
2023-04-18T15:57:56.431Z,8.32
2023-04-18T15:59:59.625Z,8.30
2023-04-18T16:02:02.193Z,8.18
2023-04-18T16:04:04.252Z,8.55
2023-04-18T16:06:06.272Z,7.88
2023-04-18T16:08:09.516Z,8.25
2023-04-18T16:10:12.872Z,8.52
2023-04-18T16:12:14.841Z,9.80
2023-04-18T16:14:16.894Z,9.20
2023-04-18T16:16:18.948Z,10.00
2023-04-18T16:18:20.942Z,9.20
2023-04-18T16:20:23.103Z,9.13
2023-04-18T16:22:24.950Z,9.27
2023-04-18T16:24:26.884Z,9.77
2023-04-18T16:26:29.036Z,9.10
2023-04-18T16:28:31.048Z,9.60
2023-04-18T16:30:32.887Z,10.07
2023-04-18T16:32:38.680Z,9.87
2023-04-18T16:34:40.660Z,10.27
2023-04-18T16:36:42.496Z,10.13
2023-04-18T16:38:44.397Z,10.23
2023-04-18T16:40:46.286Z,10.73
2023-04-18T16:42:48.217Z,9.48
2023-04-18T16:44:50.098Z,10.80
2023-04-18T16:46:52.097Z,10.38
2023-04-18T16:48:54.022Z,10.20
2023-04-18T16:50:56.139Z,9.70
2023-04-18T16:52:57.998Z,10.15
2023-04-18T16:54:59.793Z,9.10
2023-04-18T16:57:01.835Z,9.23
2023-04-18T16:59:04.193Z,9.65
2023-04-18T17:01:08.221Z,10.18
2023-04-18T17:03:10.261Z,10.13
2023-04-18T17:05:12.369Z,9.30
2023-04-18T17:07:14.233Z,9.43
2023-04-18T17:09:16.324Z,9.68
2023-04-18T17:11:18.379Z,9.55
2023-04-18T17:13:20.985Z,9.23
2023-04-18T17:15:22.994Z,9.00
2023-04-18T17:17:24.943Z,9.57
2023-04-18T17:19:26.798Z,9.50
2023-04-18T17:21:28.739Z,9.87
2023-04-18T17:23:32.785Z,10.10
2023-04-18T17:25:35.032Z,10.77
2023-04-18T17:27:37.096Z,10.43
2023-04-18T17:29:38.993Z,10.25
2023-04-18T17:31:40.945Z,11.10
2023-04-18T17:33:43.088Z,10.05
2023-04-18T17:35:44.990Z,8.57
2023-04-18T17:37:47.916Z,9.23
2023-04-18T17:39:49.917Z,8.45
2023-04-18T17:41:51.759Z,8.73
2023-04-18T17:43:53.641Z,9.37
2023-04-18T17:45:56.041Z,8.93
2023-04-18T17:47:59.551Z,9.85
2023-04-18T17:50:01.501Z,8.15
2023-04-18T17:52:03.764Z,8.90
2023-04-18T17:54:05.616Z,8.38
2023-04-18T17:56:07.469Z,8.88
2023-04-18T17:58:09.436Z,8.70
2023-04-18T18:00:12.000Z,8.95
2023-04-18T18:02:14.009Z,9.13
2023-04-18T18:04:16.316Z,8.20
2023-04-18T18:06:18.585Z,8.68
2023-04-18T18:08:20.701Z,8.70
2023-04-18T18:10:23.851Z,8.43
2023-04-18T18:12:26.372Z,8.73
2023-04-18T18:14:28.239Z,8.32
2023-04-18T18:16:30.104Z,8.03
2023-04-18T18:18:32.232Z,8.03
2023-04-18T18:20:34.101Z,8.88
2023-04-18T18:22:36.193Z,7.90
2023-04-18T18:24:38.116Z,8.60
2023-04-18T18:26:40.023Z,10.10
2023-04-18T18:28:41.903Z,12.15
2023-04-18T18:30:43.771Z,11.30
2023-04-18T18:32:45.798Z,8.98
2023-04-18T18:34:47.817Z,9.15
2023-04-18T18:36:50.590Z,9.00
2023-04-18T18:40:54.243Z,9.20
2023-04-18T18:42:56.849Z,11.03
2023-04-18T18:44:58.848Z,9.55
2023-04-18T18:47:00.669Z,11.05
2023-04-18T18:49:02.509Z,10.43
2023-04-18T18:51:04.430Z,9.55
2023-04-18T18:53:06.859Z,8.73
2023-04-18T18:55:11.663Z,8.35
2023-04-18T18:57:13.547Z,7.90
2023-04-18T18:59:16.114Z,8.75
2023-04-18T19:03:21.261Z,7.72
2023-04-18T19:05:23.350Z,7.78
2023-04-18T19:07:25.512Z,8.50
2023-04-18T19:09:27.569Z,7.75
2023-04-18T19:11:29.702Z,7.60
2023-04-18T19:13:31.563Z,7.93
2023-04-18T19:15:33.457Z,7.60
2023-04-18T19:17:35.372Z,9.18
2023-04-18T19:19:37.283Z,8.13
2023-04-18T19:21:39.866Z,9.43
2023-04-18T19:23:44.284Z,9.05
2023-04-18T19:25:46.784Z,9.73
2023-04-18T19:27:48.629Z,9.65
2023-04-18T19:29:50.732Z,8.65
2023-04-18T19:31:52.696Z,8.75
2023-04-18T19:33:54.711Z,8.85
2023-04-18T19:35:56.624Z,8.98
2023-04-18T19:38:01.697Z,9.73
2023-04-18T19:40:03.818Z,9.32
2023-04-18T19:42:05.800Z,9.10
2023-04-18T19:44:07.776Z,8.10
2023-04-18T19:46:09.650Z,7.78
2023-04-18T19:48:12.028Z,7.23
2023-04-18T19:50:14.733Z,6.75
2023-04-18T19:54:21.780Z,6.25
2023-04-18T19:56:23.842Z,5.97
2023-04-18T19:58:39.902Z,5.90
2023-04-18T20:00:41.747Z,5.70
2023-04-18T20:02:43.754Z,4.73
2023-04-18T20:04:46.030Z,5.78
2023-04-18T20:06:47.996Z,5.28
2023-04-18T20:08:49.893Z,5.17
2023-04-18T20:10:51.778Z,4.77
2023-04-18T20:12:53.606Z,4.27
2023-04-18T20:14:55.690Z,4.70
2023-04-18T20:16:57.637Z,4.43
2023-04-18T20:18:59.785Z,4.43
2023-04-18T20:21:08.623Z,4.20
2023-04-18T20:23:14.523Z,3.95
2023-04-18T20:25:16.593Z,4.32
2023-04-18T20:27:20.590Z,4.47
2023-04-18T20:29:22.461Z,3.90
2023-04-18T20:31:24.292Z,4.03
2023-04-18T20:33:26.151Z,3.80
2023-04-18T20:35:28.180Z,3.63
2023-04-18T20:37:30.086Z,4.85
2023-04-18T20:39:32.677Z,3.75
2023-04-18T20:41:35.020Z,3.65
2023-04-18T20:43:37.400Z,3.92
2023-04-18T20:45:42.945Z,3.95
2023-04-18T20:47:44.991Z,3.42
2023-04-18T20:49:46.988Z,3.78
2023-04-18T20:51:48.917Z,3.63
2023-04-18T20:53:50.850Z,3.42
2023-04-18T20:55:52.726Z,3.85
2023-04-18T20:57:54.581Z,3.40
2023-04-18T20:59:58.674Z,3.20
2023-04-18T21:02:00.762Z,3.47
2023-04-18T21:04:03.116Z,4.00
2023-04-18T21:06:05.217Z,3.15
2023-04-18T21:08:07.076Z,2.88
2023-04-18T21:10:09.254Z,3.30
2023-04-18T21:12:11.119Z,3.00
2023-04-18T21:14:13.139Z,3.17
2023-04-18T21:16:15.188Z,3.28
2023-04-18T21:18:17.037Z,3.13
2023-04-18T21:20:19.306Z,3.87
2023-04-18T21:22:21.199Z,3.17
2023-04-18T21:24:23.029Z,3.40
2023-04-18T21:26:24.845Z,3.27
2023-04-18T21:28:26.676Z,3.23
2023-04-18T21:30:28.598Z,3.30
2023-04-18T21:32:30.554Z,3.10
2023-04-18T21:34:32.476Z,2.92
2023-04-18T21:36:34.349Z,2.83
2023-04-18T21:38:36.176Z,2.70
2023-04-18T21:40:38.113Z,3.23
2023-04-18T21:42:39.918Z,3.10
2023-04-18T21:44:41.732Z,3.00
2023-04-18T21:46:43.605Z,2.87
2023-04-18T21:48:46.195Z,2.55
2023-04-18T21:50:54.780Z,2.40
2023-04-18T21:52:56.659Z,3.30
2023-04-18T21:54:59.318Z,3.20
2023-04-18T21:59:02.868Z,2.97
2023-04-18T22:01:04.852Z,2.80
2023-04-18T22:03:07.192Z,2.50
2023-04-18T22:05:09.317Z,2.83
2023-04-18T22:07:15.650Z,2.60
2023-04-18T22:09:19.393Z,2.33
2023-04-18T22:11:23.661Z,2.75
2023-04-18T22:13:30.197Z,2.95
2023-04-18T22:15:32.130Z,3.28
2023-04-18T22:17:35.057Z,3.30
2023-04-18T22:19:36.921Z,3.28
2023-04-18T22:21:38.726Z,2.77
2023-04-18T22:23:40.517Z,2.72
2023-04-18T22:25:42.427Z,2.50
2023-04-18T22:27:45.181Z,3.30
2023-04-18T22:29:47.010Z,3.95
2023-04-18T22:31:48.884Z,4.13
2023-04-18T22:33:50.870Z,4.60
2023-04-18T22:35:52.910Z,4.63
2023-04-18T22:37:55.850Z,3.40
2023-04-18T22:39:57.653Z,3.03
2023-04-18T22:41:59.464Z,2.97
2023-04-18T22:44:01.504Z,2.80
2023-04-18T22:46:03.752Z,2.90
2023-04-18T22:48:06.038Z,3.17
2023-04-18T22:50:08.634Z,3.38
2023-04-18T22:52:10.452Z,3.53
2023-04-18T22:54:12.495Z,3.50
2023-04-18T22:56:14.407Z,3.38
2023-04-18T22:58:16.268Z,3.03
2023-04-18T23:00:18.268Z,3.03
2023-04-18T23:02:20.247Z,2.97
2023-04-18T23:04:22.280Z,3.30
2023-04-18T23:06:24.286Z,3.35
2023-04-18T23:08:26.106Z,3.27
2023-04-18T23:10:27.975Z,3.50
2023-04-18T23:12:29.894Z,3.20
2023-04-18T23:14:32.144Z,3.55
2023-04-18T23:16:34.293Z,3.38
2023-04-18T23:18:36.194Z,3.78
2023-04-18T23:20:38.038Z,3.20
2023-04-18T23:22:39.867Z,3.53
2023-04-18T23:24:41.666Z,4.13
2023-04-18T23:26:43.468Z,3.97
2023-04-18T23:28:45.320Z,3.80
2023-04-18T23:30:48.218Z,3.90
2023-04-18T23:32:50.056Z,3.97
2023-04-18T23:34:52.163Z,3.80
2023-04-18T23:36:53.996Z,3.38
2023-04-18T23:38:56.013Z,4.40
2023-04-18T23:40:57.952Z,3.72
2023-04-18T23:42:59.845Z,4.05
2023-04-18T23:45:03.532Z,4.32
2023-04-18T23:47:05.953Z,4.20
2023-04-18T23:49:07.845Z,3.65
2023-04-18T23:51:09.984Z,3.63
2023-04-18T23:53:11.808Z,3.83
2023-04-18T23:55:13.677Z,3.80
2023-04-18T23:57:15.614Z,3.80
2023-04-18T23:59:17.476Z,3.85
